Time;durP1;ratioP1;P1;durP2;ratioP2;P2;SDS_P1;SDS_P2;PMS_P1;PMS_P2;Temp;Humidity;BMP_temperature;BMP_pressure;BME280_temperature;BME280_humidity;BME280_pressure;Samples;Min_cycle;Max_cycle;Signal;HPM_P1;HPM_P2
2022/08/16 00:01:21;;;;;;;22.30;20.10;;;21.30;99.90;;;;;;5048445;28;20209;-56
2022/08/16 00:03:47;;;;;;;21.95;19.60;;;21.30;99.90;;;;;;5024352;28;20311;-55
2022/08/16 00:06:13;;;;;;;21.65;18.92;;;21.30;99.90;;;;;;5032234;28;20037;-55
2022/08/16 00:08:39;;;;;;;19.33;17.17;;;21.30;99.90;;;;;;5013450;28;20037;-56
2022/08/16 00:11:06;;;;;;;20.67;18.67;;;21.30;99.90;;;;;;5028672;28;20442;-56
2022/08/16 00:13:32;;;;;;;18.17;16.27;;;21.30;99.90;;;;;;5038195;28;20049;-57
2022/08/16 00:15:58;;;;;;;19.27;17.27;;;21.30;99.90;;;;;;5013449;28;20037;-56
2022/08/16 00:18:24;;;;;;;17.65;15.75;;;21.30;99.90;;;;;;5026745;28;20040;-56
2022/08/16 00:20:50;;;;;;;18.20;16.27;;;21.40;99.90;;;;;;5036074;28;20741;-55
2022/08/16 00:23:16;;;;;;;19.80;17.30;;;21.30;99.90;;;;;;5010401;28;20037;-56
2022/08/16 00:25:42;;;;;;;16.98;15.27;;;21.40;99.90;;;;;;5030422;28;20044;-55
2022/08/16 00:28:08;;;;;;;16.17;14.48;;;21.40;99.90;;;;;;5013267;28;20052;-56
2022/08/16 00:30:34;;;;;;;19.05;16.92;;;21.40;99.90;;;;;;5026351;28;20044;-56
2022/08/16 00:33:01;;;;;;;15.98;14.35;;;21.40;99.90;;;;;;5026979;28;20037;-54
2022/08/16 00:35:30;;;;;;;19.40;17.48;;;21.40;99.90;;;;;;5028413;28;20037;-56
2022/08/16 00:37:56;;;;;;;18.88;16.63;;;21.40;99.90;;;;;;5013481;28;20052;-57
2022/08/16 00:40:27;;;;;;;21.25;17.48;;;21.40;99.90;;;;;;4992423;28;20041;-55
2022/08/16 00:42:53;;;;;;;18.65;16.33;;;21.40;99.90;;;;;;5030478;28;20163;-56
2022/08/16 00:46:03;;;;;;;19.00;17.17;;;21.40;99.90;;;;;;5032773;28;20136;-55
2022/08/16 00:48:30;;;;;;;19.35;15.25;;;21.40;99.90;;;;;;5031378;28;20040;-56
2022/08/16 00:50:56;;;;;;;19.23;16.92;;;21.30;99.90;;;;;;5025814;28;20055;-56
2022/08/16 00:53:22;;;;;;;16.92;15.20;;;21.30;99.90;;;;;;5033139;28;20639;-57
2022/08/16 00:55:50;;;;;;;19.40;16.65;;;21.30;99.90;;;;;;5027030;28;20061;-56
2022/08/16 00:58:22;;;;;;;20.42;18.42;;;21.30;99.90;;;;;;5027497;28;20128;-56
2022/08/16 01:00:49;;;;;;;18.08;16.20;;;21.30;99.90;;;;;;5025117;28;20052;-55
2022/08/16 01:03:17;;;;;;;18.63;16.67;;;21.30;99.90;;;;;;5031394;28;20056;-56
2022/08/16 01:05:43;;;;;;;23.23;19.25;;;21.30;99.90;;;;;;5027179;28;20041;-55
2022/08/16 01:08:12;;;;;;;21.70;19.25;;;21.30;99.90;;;;;;5032181;28;20040;-53
2022/08/16 01:10:38;;;;;;;22.38;20.15;;;21.30;99.90;;;;;;5036121;28;20036;-55
2022/08/16 01:13:12;;;;;;;20.27;17.10;;;21.30;99.90;;;;;;5024436;28;20028;-57
2022/08/16 01:15:43;;;;;;;20.55;17.23;;;21.30;99.90;;;;;;5021130;28;20040;-56
2022/08/16 01:18:13;;;;;;;20.55;18.50;;;21.30;99.90;;;;;;5032028;28;20045;-56
2022/08/16 01:20:46;;;;;;;20.98;18.85;;;21.30;99.90;;;;;;5016133;28;20484;-56
2022/08/16 01:23:19;;;;;;;20.90;18.95;;;21.20;99.90;;;;;;5032074;28;20041;-57
2022/08/16 01:25:48;;;;;;;17.77;16.17;;;21.20;99.90;;;;;;5025411;28;20436;-56
2022/08/16 01:28:17;;;;;;;16.77;15.07;;;21.20;99.90;;;;;;5029604;28;20030;-55
2022/08/16 01:30:48;;;;;;;19.58;17.50;;;21.20;99.90;;;;;;5033643;28;20047;-55
2022/08/16 01:33:14;;;;;;;22.58;20.25;;;21.20;99.90;;;;;;5029683;28;20047;-56
2022/08/16 01:35:42;;;;;;;22.48;20.33;;;21.20;99.90;;;;;;5010789;28;20504;-56
2022/08/16 01:38:32;;;;;;;21.20;19.00;;;21.20;99.90;;;;;;5028796;28;20072;-56
2022/08/16 01:41:03;;;;;;;21.15;18.98;;;21.20;99.90;;;;;;5049102;28;20824;-56
2022/08/16 01:43:30;;;;;;;23.10;20.70;;;21.20;99.90;;;;;;5027134;28;21018;-56
2022/08/16 01:45:57;;;;;;;18.98;17.08;;;21.20;99.90;;;;;;5036886;28;20099;-56
2022/08/16 01:48:28;;;;;;;24.63;22.33;;;21.20;99.90;;;;;;5032561;28;20072;-55
2022/08/16 01:50:54;;;;;;;22.17;18.60;;;21.10;99.90;;;;;;5026243;28;20041;-55
2022/08/16 01:53:20;;;;;;;25.48;22.80;;;21.20;99.90;;;;;;5023122;28;20080;-57
2022/08/16 01:55:45;;;;;;;24.15;20.40;;;21.10;99.90;;;;;;5029981;28;20116;-56
2022/08/16 01:58:16;;;;;;;22.02;19.65;;;21.10;99.90;;;;;;5031681;28;20495;-56
2022/08/16 02:00:42;;;;;;;24.77;22.33;;;21.10;99.90;;;;;;5023229;28;20591;-56
2022/08/16 02:03:09;;;;;;;23.05;20.63;;;21.10;99.90;;;;;;5029555;28;20048;-56
2022/08/16 02:05:35;;;;;;;24.55;22.25;;;21.10;99.90;;;;;;5025420;28;20483;-56
2022/08/16 02:08:03;;;;;;;23.17;20.90;;;21.10;99.90;;;;;;5006959;28;22044;-56
2022/08/16 02:10:29;;;;;;;24.20;21.73;;;21.00;99.90;;;;;;5024730;28;20041;-54
2022/08/16 02:12:56;;;;;;;22.90;20.55;;;21.00;99.90;;;;;;5031399;28;20087;-55
2022/08/16 02:15:24;;;;;;;25.92;22.27;;;21.00;99.90;;;;;;5029235;28;20494;-56
2022/08/16 02:17:50;;;;;;;22.63;20.38;;;21.00;99.90;;;;;;5030478;28;20503;-55
2022/08/16 02:20:17;;;;;;;23.23;20.80;;;20.90;99.90;;;;;;5028280;28;20071;-57
2022/08/16 02:22:43;;;;;;;20.98;18.80;;;20.90;99.90;;;;;;5036265;28;20113;-56
2022/08/16 02:25:13;;;;;;;25.52;22.85;;;20.90;99.90;;;;;;5035812;28;20037;-56
2022/08/16 02:27:40;;;;;;;23.15;20.88;;;20.80;99.90;;;;;;5028461;28;20045;-56
2022/08/16 02:30:11;;;;;;;23.83;21.30;;;20.80;99.90;;;;;;5025850;28;20037;-56
2022/08/16 02:32:36;;;;;;;23.02;20.85;;;20.80;99.90;;;;;;5028911;28;20037;-55
2022/08/16 02:35:03;;;;;;;27.17;24.38;;;20.80;99.90;;;;;;5027110;28;20446;-57
2022/08/16 02:37:29;;;;;;;22.75;20.42;;;20.80;99.90;;;;;;5017951;28;20067;-55
2022/08/16 02:39:55;;;;;;;22.60;19.90;;;20.70;99.90;;;;;;5032652;28;20068;-55
2022/08/16 02:42:21;;;;;;;27.83;24.88;;;20.70;99.90;;;;;;5031133;28;20489;-55
2022/08/16 02:44:46;;;;;;;24.17;21.75;;;20.70;99.90;;;;;;5027116;28;20167;-56
2022/08/16 02:47:12;;;;;;;22.42;20.15;;;20.70;99.90;;;;;;5030002;28;20041;-56
2022/08/16 02:49:38;;;;;;;25.20;22.67;;;20.60;99.90;;;;;;5031136;28;20037;-56
2022/08/16 02:52:04;;;;;;;24.98;22.42;;;20.60;99.90;;;;;;5026261;28;20122;-55
2022/08/16 02:54:29;;;;;;;27.83;22.52;;;20.60;99.90;;;;;;5034337;28;21917;-56
2022/08/16 02:56:55;;;;;;;23.17;20.80;;;20.50;99.90;;;;;;5027798;28;20056;-55
2022/08/16 02:59:21;;;;;;;26.52;23.90;;;20.50;99.90;;;;;;5030169;28;20439;-56
2022/08/16 03:01:46;;;;;;;25.60;22.58;;;20.50;99.90;;;;;;5022976;28;20036;-55
2022/08/16 03:04:12;;;;;;;24.90;22.30;;;20.40;99.90;;;;;;5010745;28;20612;-57
2022/08/16 03:06:38;;;;;;;25.73;20.80;;;20.40;99.90;;;;;;5030906;28;20036;-56
2022/08/16 03:09:04;;;;;;;30.58;24.90;;;20.40;99.90;;;;;;4999149;28;20040;-55
2022/08/16 03:11:31;;;;;;;23.77;21.38;;;20.30;99.90;;;;;;5033707;28;20033;-56
2022/08/16 03:13:58;;;;;;;21.88;19.73;;;20.30;99.90;;;;;;5028563;28;20049;-56
2022/08/16 03:16:24;;;;;;;23.95;21.52;;;20.30;99.90;;;;;;5030648;28;20768;-55
2022/08/16 03:18:50;;;;;;;26.48;23.83;;;20.20;99.90;;;;;;5033145;28;20040;-55
2022/08/16 03:21:16;;;;;;;24.90;22.42;;;20.20;99.90;;;;;;5027425;28;20045;-56
2022/08/16 03:23:42;;;;;;;24.13;21.58;;;20.10;99.90;;;;;;5035277;28;20528;-56
2022/08/16 03:26:08;;;;;;;25.33;22.73;;;20.10;99.90;;;;;;5024371;28;20041;-57
2022/08/16 03:28:34;;;;;;;26.00;23.52;;;20.00;99.90;;;;;;5032212;28;20041;-56
2022/08/16 03:31:00;;;;;;;28.75;23.67;;;20.00;99.90;;;;;;5027536;28;20136;-55
2022/08/16 03:33:26;;;;;;;27.40;24.67;;;20.00;99.90;;;;;;5031106;28;21889;-56
2022/08/16 03:35:58;;;;;;;27.88;24.83;;;20.00;99.90;;;;;;5030225;28;20125;-56
2022/08/16 03:38:26;;;;;;;25.00;22.45;;;19.90;99.90;;;;;;5023549;28;20081;-55
2022/08/16 03:40:52;;;;;;;26.00;23.15;;;19.90;99.90;;;;;;5030999;28;20098;-56
2022/08/16 03:43:18;;;;;;;26.65;22.00;;;19.90;99.90;;;;;;5031700;28;20052;-56
2022/08/16 03:45:44;;;;;;;24.50;22.17;;;19.80;99.90;;;;;;5010372;28;20047;-56
2022/08/16 03:48:10;;;;;;;24.77;22.13;;;19.80;99.90;;;;;;5011996;28;20183;-56
2022/08/16 03:50:36;;;;;;;27.15;24.63;;;19.80;99.90;;;;;;5030775;28;20032;-56
2022/08/16 03:53:03;;;;;;;28.67;25.40;;;19.80;99.90;;;;;;5025894;28;20095;-56
2022/08/16 03:55:35;;;;;;;24.90;22.27;;;19.70;99.90;;;;;;5031699;28;20055;-56
2022/08/16 03:58:01;;;;;;;31.23;26.42;;;19.70;99.90;;;;;;5020820;28;20491;-56
2022/08/16 04:00:29;;;;;;;29.30;25.50;;;19.70;99.90;;;;;;5025837;22;20045;-63
2022/08/16 04:02:56;;;;;;;27.02;24.10;;;19.60;99.90;;;;;;5023015;28;20060;-62
2022/08/16 04:05:22;;;;;;;27.83;24.95;;;19.60;99.90;;;;;;5005265;28;20495;-64
2022/08/16 04:07:48;;;;;;;26.77;24.08;;;19.60;99.90;;;;;;4974285;28;20439;-61
2022/08/16 04:10:14;;;;;;;26.25;23.50;;;19.60;99.90;;;;;;5017311;28;20037;-61
2022/08/16 04:12:41;;;;;;;25.83;22.35;;;19.60;99.90;;;;;;5011429;28;20583;-61
2022/08/16 04:15:11;;;;;;;28.90;26.00;;;19.50;99.90;;;;;;5012993;28;20514;-61
2022/08/16 04:17:37;;;;;;;29.40;26.35;;;19.50;99.90;;;;;;5007224;28;20083;-61
2022/08/16 04:20:07;;;;;;;27.65;24.92;;;19.50;99.90;;;;;;5007273;28;20124;-62
2022/08/16 04:22:34;;;;;;;25.42;22.77;;;19.50;99.90;;;;;;5010010;28;20034;-62
2022/08/16 04:25:00;;;;;;;27.52;23.23;;;19.40;99.90;;;;;;5012721;28;20575;-63
2022/08/16 04:27:26;;;;;;;25.15;22.45;;;19.50;99.90;;;;;;4995351;28;20061;-65
2022/08/16 04:29:52;;;;;;;28.80;25.90;;;19.40;99.90;;;;;;4997698;28;20038;-64
2022/08/16 04:32:18;;;;;;;29.33;26.30;;;19.40;99.90;;;;;;5016559;28;20576;-61
2022/08/16 04:34:44;;;;;;;27.45;24.52;;;19.40;99.90;;;;;;5020289;28;20030;-63
2022/08/16 04:37:10;;;;;;;28.75;25.65;;;19.40;99.90;;;;;;5007114;28;20115;-61
2022/08/16 04:39:37;;;;;;;29.38;26.40;;;19.40;99.90;;;;;;5007011;28;20040;-60
2022/08/16 04:42:04;;;;;;;27.77;23.33;;;19.40;99.90;;;;;;5007833;28;20057;-61
2022/08/16 04:44:30;;;;;;;28.20;25.30;;;19.40;99.90;;;;;;5012133;28;20052;-65
2022/08/16 04:46:56;;;;;;;29.05;25.95;;;19.40;99.90;;;;;;4993536;28;20045;-64
2022/08/16 04:49:22;;;;;;;30.15;26.98;;;19.40;99.90;;;;;;5010468;28;20081;-63
2022/08/16 04:51:48;;;;;;;29.85;26.40;;;19.40;99.90;;;;;;5014946;28;20404;-63
2022/08/16 04:54:14;;;;;;;30.92;27.58;;;19.40;99.90;;;;;;5009748;28;20063;-63
2022/08/16 04:56:40;;;;;;;28.10;24.10;;;19.40;99.90;;;;;;5009005;28;20045;-63
2022/08/16 04:59:07;;;;;;;26.77;23.60;;;19.40;99.90;;;;;;5012982;28;20034;-64
2022/08/16 05:01:34;;;;;;;26.23;23.42;;;19.40;99.90;;;;;;5011109;28;20060;-62
2022/08/16 05:04:00;;;;;;;27.98;25.02;;;19.40;99.90;;;;;;5013328;28;20541;-60
2022/08/16 05:06:26;;;;;;;26.88;24.38;;;19.40;99.90;;;;;;5014504;28;20042;-62
2022/08/16 05:08:52;;;;;;;27.17;24.40;;;19.40;99.90;;;;;;5011281;28;20100;-66
2022/08/16 05:11:18;;;;;;;30.42;27.17;;;19.40;99.90;;;;;;5014882;28;20042;-61
2022/08/16 05:13:45;;;;;;;23.70;20.65;;;19.50;99.90;;;;;;5014047;28;20034;-61
2022/08/16 05:16:19;;;;;;;28.38;25.48;;;19.50;99.90;;;;;;4996342;28;20041;-63
2022/08/16 05:18:45;;;;;;;29.50;26.48;;;19.50;99.90;;;;;;5015145;28;20041;-62
2022/08/16 05:21:10;;;;;;;26.92;24.17;;;19.50;99.90;;;;;;4999636;28;20768;-61
2022/08/16 05:23:36;;;;;;;28.95;25.48;;;19.50;99.90;;;;;;5006953;28;20053;-65
2022/08/16 05:26:02;;;;;;;28.10;25.02;;;19.50;99.90;;;;;;5007285;28;20060;-64
2022/08/16 05:28:28;;;;;;;27.27;24.45;;;19.50;99.90;;;;;;4996890;28;20041;-61
2022/08/16 05:31:00;;;;;;;26.73;23.88;;;19.50;99.90;;;;;;5017357;28;20042;-65
2022/08/16 05:33:26;;;;;;;30.27;24.20;;;19.50;99.90;;;;;;5012486;28;20099;-61
2022/08/16 05:35:55;;;;;;;30.15;26.90;;;19.60;99.90;;;;;;5007999;28;20045;-60
2022/08/16 05:38:26;;;;;;;27.65;24.83;;;19.60;99.90;;;;;;5008360;28;20048;-60
2022/08/16 05:40:53;;;;;;;27.48;24.58;;;19.60;99.90;;;;;;5018071;28;20488;-65
2022/08/16 05:43:20;;;;;;;28.65;25.88;;;19.70;99.90;;;;;;5002606;28;20045;-63
2022/08/16 05:45:45;;;;;;;30.15;26.88;;;19.70;99.90;;;;;;5004306;28;20044;-62
2022/08/16 05:48:11;;;;;;;26.75;24.00;;;19.70;99.90;;;;;;5011610;28;20049;-62
2022/08/16 05:50:38;;;;;;;27.17;24.48;;;19.80;99.90;;;;;;5027529;28;20036;-63
2022/08/16 05:53:05;;;;;;;28.08;25.20;;;19.80;99.90;;;;;;5014998;28;20054;-64
2022/08/16 05:55:30;;;;;;;28.83;25.65;;;19.90;99.90;;;;;;5012168;28;20041;-63
2022/08/16 05:57:56;;;;;;;27.33;24.33;;;19.90;99.90;;;;;;5013927;28;20708;-65
2022/08/16 06:00:23;;;;;;;25.75;23.17;;;20.00;99.90;;;;;;5015483;28;20130;-61
2022/08/16 06:02:49;;;;;;;26.25;23.42;;;20.00;99.90;;;;;;5016762;28;20041;-63
2022/08/16 06:05:16;;;;;;;25.90;23.20;;;20.00;99.90;;;;;;5024496;28;20088;-63
2022/08/16 06:07:42;;;;;;;26.45;23.77;;;20.10;99.90;;;;;;5021761;28;20053;-63
2022/08/16 06:10:08;;;;;;;27.63;24.00;;;20.10;99.90;;;;;;5020064;28;20041;-62
2022/08/16 06:12:34;;;;;;;26.13;23.52;;;20.20;99.90;;;;;;5016548;28;20045;-64
2022/08/16 06:15:03;;;;;;;27.65;24.73;;;20.30;99.90;;;;;;5005844;28;20041;-62
2022/08/16 06:17:29;;;;;;;28.23;25.33;;;20.30;99.90;;;;;;5015595;28;20535;-62
2022/08/16 06:19:55;;;;;;;25.25;22.70;;;20.40;99.90;;;;;;5015413;28;20033;-64
2022/08/16 06:22:21;;;;;;;26.98;24.15;;;20.40;99.90;;;;;;5017583;28;20483;-65
2022/08/16 06:24:47;;;;;;;27.13;24.33;;;20.50;99.90;;;;;;4997985;28;20049;-63
2022/08/16 06:27:12;;;;;;;29.33;24.45;;;20.60;99.90;;;;;;5010892;28;20042;-63
2022/08/16 06:29:38;;;;;;;26.50;23.65;;;20.70;99.90;;;;;;5009108;28;20400;-63
2022/08/16 06:32:05;;;;;;;27.77;25.02;;;20.70;99.90;;;;;;5025173;28;20041;-62
2022/08/16 06:34:32;;;;;;;26.70;24.08;;;20.80;99.90;;;;;;5013662;28;20500;-63
2022/08/16 06:36:57;;;;;;;27.05;24.23;;;20.80;99.90;;;;;;5013298;28;20453;-65
2022/08/16 06:39:23;;;;;;;25.70;22.98;;;20.90;99.90;;;;;;4999190;28;20092;-65
2022/08/16 06:41:49;;;;;;;25.70;23.20;;;21.00;99.90;;;;;;5034307;28;20048;-61
2022/08/16 06:44:14;;;;;;;30.70;27.10;;;21.10;99.90;;;;;;5015528;28;20135;-63
2022/08/16 06:46:40;;;;;;;27.70;24.80;;;21.20;99.90;;;;;;5014958;28;20468;-65
2022/08/16 06:49:09;;;;;;;27.73;24.67;;;21.30;99.90;;;;;;5004107;28;20076;-63
2022/08/16 06:51:36;;;;;;;28.55;25.52;;;21.40;99.90;;;;;;5022007;28;20095;-64
2022/08/16 06:54:03;;;;;;;29.23;26.35;;;21.50;99.90;;;;;;5015714;28;20142;-64
2022/08/16 06:56:29;;;;;;;30.85;25.85;;;21.50;99.90;;;;;;5020046;28;20037;-66
2022/08/16 06:58:57;;;;;;;30.48;27.33;;;21.60;99.90;;;;;;5008467;28;20507;-61
2022/08/16 07:01:23;;;;;;;29.65;26.52;;;21.80;99.90;;;;;;5010416;28;20079;-62
2022/08/16 07:03:49;;;;;;;31.75;28.42;;;21.90;99.90;;;;;;5007437;28;20055;-62
2022/08/16 07:06:17;;;;;;;29.92;26.83;;;22.00;99.90;;;;;;5025306;28;20075;-64
2022/08/16 07:08:45;;;;;;;28.65;25.63;;;22.10;99.90;;;;;;5010696;28;20471;-62
2022/08/16 07:11:12;;;;;;;27.98;25.23;;;22.20;99.90;;;;;;5005278;28;20037;-63
2022/08/16 07:13:39;;;;;;;31.40;28.15;;;22.20;99.90;;;;;;5005780;28;20042;-63
2022/08/16 07:16:06;;;;;;;28.17;25.35;;;22.40;99.90;;;;;;5022576;28;20046;-63
2022/08/16 07:18:32;;;;;;;31.67;27.35;;;22.40;99.90;;;;;;5003538;28;20536;-63
2022/08/16 07:20:58;;;;;;;29.23;26.25;;;22.50;99.90;;;;;;5010431;28;20086;-62
2022/08/16 07:23:25;;;;;;;29.38;26.48;;;22.50;99.90;;;;;;5012992;28;20049;-63
2022/08/16 07:25:52;;;;;;;29.52;26.70;;;22.70;99.90;;;;;;5017382;28;20226;-62
2022/08/16 07:28:19;;;;;;;30.60;27.50;;;22.80;99.90;;;;;;5011904;28;20098;-61
2022/08/16 07:30:46;;;;;;;33.03;27.83;;;22.90;99.90;;;;;;5012910;28;20045;-67
2022/08/16 07:33:13;;;;;;;32.65;26.85;;;23.00;99.90;;;;;;4992846;28;20408;-65
2022/08/16 07:35:40;;;;;;;27.58;24.88;;;23.10;99.90;;;;;;4996007;28;20034;-62
2022/08/16 07:38:06;;;;;;;28.90;25.80;;;23.20;99.90;;;;;;4994688;28;20369;-64
2022/08/16 07:40:36;;;;;;;30.98;24.10;;;23.40;99.90;;;;;;5015142;28;20315;-65
2022/08/16 07:43:02;;;;;;;25.02;22.48;;;23.50;99.90;;;;;;5011323;28;20042;-66
2022/08/16 07:45:28;;;;;;;25.65;22.95;;;23.60;99.90;;;;;;5008242;28;20049;-62
2022/08/16 07:47:54;;;;;;;26.38;22.35;;;23.60;99.90;;;;;;5010413;28;20052;-62
2022/08/16 07:50:20;;;;;;;25.25;22.70;;;23.60;99.90;;;;;;4990854;28;20040;-61
2022/08/16 07:52:47;;;;;;;25.38;22.75;;;23.60;99.90;;;;;;5010053;28;20057;-62
2022/08/16 07:55:15;;;;;;;26.73;23.50;;;23.60;99.90;;;;;;5011135;28;20046;-62
2022/08/16 07:57:42;;;;;;;23.63;21.23;;;23.60;99.90;;;;;;5026398;28;20034;-62
2022/08/16 08:00:09;;;;;;;23.50;20.75;;;23.60;99.90;;;;;;5009338;28;20095;-62
2022/08/16 08:02:35;;;;;;;26.15;21.50;;;23.70;99.90;;;;;;5001926;28;20396;-62
2022/08/16 08:05:02;;;;;;;27.25;23.23;;;23.70;99.90;;;;;;5007601;28;20034;-61
2022/08/16 08:07:28;;;;;;;26.77;22.75;;;23.80;99.90;;;;;;5003725;28;20558;-61
2022/08/16 08:09:55;;;;;;;24.73;21.98;;;23.90;99.90;;;;;;5010023;28;20121;-62
2022/08/16 08:12:21;;;;;;;24.92;22.33;;;24.00;99.90;;;;;;5008375;28;20069;-61
2022/08/16 08:14:47;;;;;;;26.10;23.40;;;24.10;99.90;;;;;;5007889;28;20128;-61
2022/08/16 08:17:14;;;;;;;24.73;21.45;;;24.20;99.90;;;;;;5012751;28;20231;-61
2022/08/16 08:19:40;;;;;;;24.83;21.40;;;24.30;99.90;;;;;;4995916;28;20033;-61
2022/08/16 08:22:08;;;;;;;23.63;21.15;;;24.30;99.90;;;;;;5007189;28;20043;-61
2022/08/16 08:24:36;;;;;;;21.58;19.33;;;24.30;99.90;;;;;;5009966;28;20109;-61
2022/08/16 08:27:03;;;;;;;21.67;19.05;;;24.30;99.90;;;;;;5007644;28;20041;-61
2022/08/16 08:29:29;;;;;;;25.67;20.02;;;24.30;99.90;;;;;;4997844;28;20049;-61
2022/08/16 08:31:55;;;;;;;21.27;17.73;;;24.40;99.90;;;;;;5010255;28;20147;-61
2022/08/16 08:34:21;;;;;;;21.15;17.48;;;24.40;99.90;;;;;;4990808;28;20061;-62
2022/08/16 08:36:47;;;;;;;21.25;18.10;;;24.50;99.90;;;;;;5006310;28;20045;-61
2022/08/16 08:39:14;;;;;;;22.00;17.02;;;24.50;99.90;;;;;;4993923;28;20146;-61
2022/08/16 08:41:43;;;;;;;22.27;17.70;;;24.60;99.90;;;;;;5010816;28;20502;-63
2022/08/16 08:44:10;;;;;;;21.63;18.55;;;24.70;99.90;;;;;;5010433;28;20049;-62
2022/08/16 08:46:37;;;;;;;24.02;19.17;;;24.80;99.90;;;;;;5014069;28;20080;-61
2022/08/16 08:49:06;;;;;;;21.45;19.17;;;24.80;99.90;;;;;;5022845;28;20038;-62
2022/08/16 08:51:33;;;;;;;19.35;17.08;;;24.80;99.90;;;;;;5008576;28;20132;-62
2022/08/16 08:53:59;;;;;;;26.10;20.13;;;24.90;99.90;;;;;;5009368;28;20044;-62
2022/08/16 08:56:25;;;;;;;22.77;19.63;;;24.90;99.90;;;;;;4999284;28;20041;-62
2022/08/16 08:58:51;;;;;;;24.75;21.90;;;25.00;99.90;;;;;;5010159;28;20040;-61
2022/08/16 09:01:32;;;;;;;20.88;18.67;;;25.10;99.90;;;;;;5016530;28;20404;-61
2022/08/16 09:03:58;;;;;;;23.10;19.83;;;25.20;99.90;;;;;;5014422;28;20302;-61
2022/08/16 09:06:25;;;;;;;23.10;20.42;;;25.30;99.90;;;;;;5020484;28;20076;-61
2022/08/16 09:08:50;;;;;;;18.48;16.40;;;25.40;99.90;;;;;;4995461;28;20041;-61
2022/08/16 09:11:16;;;;;;;23.80;19.50;;;25.50;99.90;;;;;;5023399;28;20094;-61
2022/08/16 09:13:43;;;;;;;20.27;16.88;;;25.60;99.90;;;;;;5022788;28;20045;-61
2022/08/16 09:16:09;;;;;;;20.40;18.23;;;25.70;99.90;;;;;;5019620;28;20084;-61
2022/08/16 09:18:34;;;;;;;20.85;18.55;;;25.80;99.90;;;;;;5030567;28;20128;-61
2022/08/16 09:21:00;;;;;;;18.20;16.40;;;25.90;99.90;;;;;;5021708;28;20404;-61
2022/08/16 09:23:34;;;;;;;19.02;17.02;;;25.90;99.80;;;;;;5005975;28;20041;-61
2022/08/16 09:26:01;;;;;;;20.35;18.20;;;26.00;99.70;;;;;;5035127;28;20144;-61
2022/08/16 09:28:27;;;;;;;18.88;16.92;;;26.00;99.40;;;;;;5036777;28;20053;-61
2022/08/16 09:30:54;;;;;;;19.40;16.50;;;26.00;99.20;;;;;;5026576;28;20033;-61
2022/08/16 09:33:19;;;;;;;18.52;16.42;;;26.10;99.10;;;;;;5018667;28;20049;-60
2022/08/16 09:35:46;;;;;;;17.85;15.48;;;26.10;98.70;;;;;;5022392;28;20042;-61
2022/08/16 09:38:13;;;;;;;21.50;17.80;;;26.20;98.70;;;;;;5013570;28;20484;-61
2022/08/16 09:40:41;;;;;;;16.67;14.63;;;26.30;98.40;;;;;;5017105;28;20044;-60
2022/08/16 09:43:11;;;;;;;21.50;17.50;;;26.30;97.90;;;;;;5020492;28;20041;-60
2022/08/16 09:45:40;;;;;;;17.60;15.82;;;26.30;98.10;;;;;;5001575;28;20415;-60
2022/08/16 09:48:11;;;;;;;17.83;15.30;;;26.40;98.30;;;;;;5015551;28;20046;-60
2022/08/16 09:50:38;;;;;;;15.82;13.98;;;26.50;97.70;;;;;;5015906;28;20041;-60
2022/08/16 09:53:07;;;;;;;18.63;15.68;;;26.60;97.80;;;;;;5020106;28;20496;-62
2022/08/16 09:55:33;;;;;;;23.00;16.88;;;26.60;97.40;;;;;;4993485;28;20096;-61
2022/08/16 09:57:59;;;;;;;18.77;16.77;;;26.70;97.20;;;;;;5015841;28;20041;-60
2022/08/16 10:00:25;;;;;;;19.45;16.40;;;26.70;97.20;;;;;;5034861;22;20438;-57
2022/08/16 10:02:52;;;;;;;17.17;15.30;;;26.80;97.00;;;;;;5030421;28;20037;-58
2022/08/16 10:05:20;;;;;;;17.00;15.30;;;26.80;97.00;;;;;;5031269;28;20080;-59
2022/08/16 10:07:51;;;;;;;16.67;14.77;;;26.90;96.60;;;;;;5028626;28;20036;-57
2022/08/16 10:10:18;;;;;;;13.57;12.00;;;27.00;96.50;;;;;;5034815;28;20041;-54
2022/08/16 10:15:28;;;;;;;17.88;15.15;;;27.00;96.20;;;;;;5042177;28;20499;-57
2022/08/16 10:17:55;;;;;;;14.20;12.75;;;27.10;96.40;;;;;;5053947;28;20048;-57
2022/08/16 10:20:24;;;;;;;14.45;13.02;;;27.20;96.50;;;;;;5034677;28;20041;-57
2022/08/16 10:22:51;;;;;;;18.10;15.23;;;27.30;96.60;;;;;;5014074;28;20037;-57
2022/08/16 10:25:17;;;;;;;18.80;15.75;;;27.40;96.40;;;;;;5021572;28;20037;-57
2022/08/16 10:27:46;;;;;;;18.77;15.93;;;27.50;96.00;;;;;;5036748;28;20045;-58
2022/08/16 10:30:13;;;;;;;16.50;14.85;;;27.50;96.10;;;;;;5033625;28;20210;-57
2022/08/16 10:32:39;;;;;;;19.95;15.05;;;27.60;95.90;;;;;;5038460;28;20102;-56
2022/08/16 10:35:06;;;;;;;18.52;13.63;;;27.40;95.30;;;;;;5050180;28;20049;-56
2022/08/16 10:37:31;;;;;;;16.88;14.00;;;27.50;95.60;;;;;;5033694;28;20068;-58
2022/08/16 10:39:58;;;;;;;16.13;14.43;;;27.60;95.60;;;;;;5037964;28;20609;-58
2022/08/16 10:42:24;;;;;;;18.83;16.85;;;27.80;95.60;;;;;;5023069;28;20041;-58
2022/08/16 10:44:50;;;;;;;19.67;15.75;;;27.70;95.30;;;;;;5034703;28;20045;-58
2022/08/16 10:47:16;;;;;;;15.77;14.15;;;27.70;95.40;;;;;;5029300;28;20064;-56
2022/08/16 10:49:41;;;;;;;16.75;14.00;;;27.70;95.50;;;;;;5044002;28;20553;-58
2022/08/16 10:52:07;;;;;;;16.38;12.80;;;27.90;95.40;;;;;;5056561;28;20078;-58
2022/08/16 10:54:33;;;;;;;15.90;14.30;;;28.10;95.20;;;;;;5019122;28;20464;-58
2022/08/16 10:57:01;;;;;;;19.63;14.88;;;28.20;94.90;;;;;;5056087;28;20044;-58
2022/08/16 10:59:30;;;;;;;18.17;15.48;;;28.20;94.50;;;;;;5042758;28;20045;-58
2022/08/16 11:01:57;;;;;;;17.52;15.68;;;28.10;94.40;;;;;;5039180;28;20483;-58
2022/08/16 11:04:23;;;;;;;17.05;14.05;;;28.10;94.60;;;;;;5037680;28;20060;-58
2022/08/16 11:06:48;;;;;;;14.88;11.50;;;28.10;94.20;;;;;;5051731;28;20051;-58
2022/08/16 11:09:14;;;;;;;18.85;15.13;;;27.70;93.00;;;;;;5045779;28;20049;-58
2022/08/16 11:11:40;;;;;;;18.67;16.63;;;27.70;93.90;;;;;;5033078;28;20441;-57
2022/08/16 11:14:06;;;;;;;18.08;13.43;;;27.70;93.90;;;;;;5035482;28;20044;-58
2022/08/16 11:16:32;;;;;;;17.48;15.48;;;27.90;94.10;;;;;;5022501;28;20076;-58
2022/08/16 11:18:58;;;;;;;16.98;15.32;;;28.10;93.80;;;;;;5052452;28;20415;-58
2022/08/16 11:21:24;;;;;;;17.20;12.55;;;28.20;93.90;;;;;;5036788;28;20048;-56
2022/08/16 11:23:52;;;;;;;15.80;13.93;;;28.30;94.20;;;;;;5023082;28;20053;-58
2022/08/16 11:26:18;;;;;;;18.85;15.85;;;28.50;93.90;;;;;;5023238;28;20063;-58
2022/08/16 11:28:44;;;;;;;21.65;18.30;;;28.40;93.60;;;;;;5053225;28;20633;-58
2022/08/16 11:31:11;;;;;;;21.98;17.73;;;28.20;93.80;;;;;;5047915;28;20487;-59
2022/08/16 11:33:37;;;;;;;16.02;13.27;;;28.00;94.00;;;;;;5030922;28;20037;-58
2022/08/16 11:36:03;;;;;;;18.50;13.70;;;27.80;94.20;;;;;;5017127;28;20045;-57
2022/08/16 11:38:29;;;;;;;17.70;13.68;;;27.90;94.50;;;;;;5040386;28;20028;-58
2022/08/16 11:40:57;;;;;;;17.63;15.35;;;28.00;94.60;;;;;;5037540;28;20610;-58
2022/08/16 11:43:32;;;;;;;14.27;12.65;;;27.80;93.70;;;;;;5028662;28;20041;-57
2022/08/16 11:46:01;;;;;;;13.80;10.63;;;27.80;94.60;;;;;;5040316;28;20044;-58
2022/08/16 11:48:29;;;;;;;13.07;11.68;;;28.00;94.60;;;;;;5036569;28;20043;-58
2022/08/16 11:50:55;;;;;;;13.30;11.75;;;28.20;94.30;;;;;;5053956;28;20502;-58
2022/08/16 11:53:23;;;;;;;16.77;12.18;;;28.20;94.40;;;;;;5025445;28;20044;-57
2022/08/16 11:55:49;;;;;;;13.70;11.10;;;28.30;94.10;;;;;;5010347;28;20045;-57
2022/08/16 11:58:15;;;;;;;15.63;12.80;;;28.40;94.20;;;;;;5026874;28;20124;-56
2022/08/16 12:00:43;;;;;;;13.32;11.80;;;28.60;94.10;;;;;;5033112;28;20045;-58
2022/08/16 12:03:09;;;;;;;16.75;12.30;;;28.80;94.00;;;;;;5037813;28;20523;-57
2022/08/16 12:05:35;;;;;;;12.65;9.88;;;28.90;93.20;;;;;;5053015;28;20033;-57
2022/08/16 12:08:05;;;;;;;14.82;12.55;;;28.90;93.40;;;;;;5035547;28;20037;-59
2022/08/16 12:10:32;;;;;;;12.77;11.45;;;29.00;93.30;;;;;;5038957;28;20394;-58
2022/08/16 12:12:58;;;;;;;11.98;10.73;;;29.00;93.50;;;;;;5036537;28;20115;-58
2022/08/16 12:15:26;;;;;;;18.38;13.23;;;29.10;93.50;;;;;;5035218;28;20502;-58
2022/08/16 12:17:53;;;;;;;13.63;12.10;;;29.10;92.80;;;;;;5020962;28;20032;-58
2022/08/16 12:20:24;;;;;;;16.10;11.65;;;28.90;92.60;;;;;;5034848;28;20510;-59
2022/08/16 12:22:51;;;;;;;13.05;11.40;;;29.00;92.70;;;;;;5041895;28;20060;-57
2022/08/16 12:25:19;;;;;;;15.40;12.15;;;28.80;92.60;;;;;;5042737;28;20049;-56
2022/08/16 12:27:46;;;;;;;14.00;11.13;;;28.60;92.80;;;;;;5054178;28;20403;-55
2022/08/16 12:30:14;;;;;;;15.80;11.45;;;28.40;92.90;;;;;;5022643;28;20043;-56